createdAt,value
2022-10-10T00:00:40.390Z,100763.91
2022-10-10T00:02:43.668Z,100768.44
2022-10-10T00:04:46.958Z,100769.44
2022-10-10T00:06:50.328Z,100775.75
2022-10-10T00:08:55.153Z,100786.38
2022-10-10T00:10:58.482Z,100786.47
2022-10-10T00:13:03.678Z,100793.56
2022-10-10T00:15:07.927Z,100801.47
2022-10-10T00:17:11.281Z,100792.69
2022-10-10T00:19:14.562Z,100804.25
2022-10-10T00:21:17.874Z,100807.00
2022-10-10T00:23:21.873Z,100806.22
2022-10-10T00:25:25.395Z,100812.25
2022-10-10T00:27:28.613Z,100811.44
2022-10-10T00:29:33.360Z,100812.25
2022-10-10T00:31:36.719Z,100809.63
2022-10-10T00:33:39.993Z,100818.38
2022-10-10T00:35:43.719Z,100814.81
2022-10-10T00:37:47.030Z,100807.81
2022-10-10T00:39:50.609Z,100813.09
2022-10-10T00:41:53.873Z,100815.69
2022-10-10T00:44:09.260Z,100822.72
2022-10-10T00:46:13.945Z,100821.91
2022-10-10T00:48:20.016Z,100823.59
2022-10-10T00:50:24.886Z,100825.38
2022-10-10T00:52:28.140Z,100822.81
2022-10-10T00:54:34.572Z,100829.91
2022-10-10T00:56:42.942Z,100836.09
2022-10-10T00:58:49.344Z,100830.81
2022-10-10T01:00:53.932Z,100837.97
2022-10-10T01:02:58.526Z,100844.09
2022-10-10T01:05:01.897Z,100847.59
2022-10-10T01:07:07.644Z,100851.09
2022-10-10T01:09:10.961Z,100856.38
2022-10-10T01:11:35.591Z,100853.66
2022-10-10T01:13:48.168Z,100856.22
2022-10-10T01:15:57.366Z,100847.50
2022-10-10T01:18:10.470Z,100852.78
2022-10-10T01:20:34.326Z,100851.09
2022-10-10T01:22:49.618Z,100857.13
2022-10-10T01:25:02.343Z,100862.41
2022-10-10T01:27:31.213Z,100866.16
2022-10-10T01:29:40.420Z,100870.59
2022-10-10T01:31:46.700Z,100880.28
2022-10-10T01:33:56.111Z,100882.91
2022-10-10T01:36:06.625Z,100875.09
2022-10-10T01:38:21.356Z,100879.53
2022-10-10T01:40:30.523Z,100881.22
2022-10-10T01:42:39.656Z,100885.56
2022-10-10T01:44:46.770Z,100890.84
2022-10-10T01:46:50.004Z,100878.41
2022-10-10T01:48:55.976Z,100887.19
2022-10-10T01:51:22.013Z,100883.78
2022-10-10T01:53:32.158Z,100889.06
2022-10-10T01:55:57.438Z,100893.47
2022-10-10T01:58:12.041Z,100897.91
2022-10-10T02:00:18.647Z,100900.53
2022-10-10T02:02:31.115Z,100899.72
2022-10-10T02:04:40.034Z,100913.03
2022-10-10T02:06:48.849Z,100911.34
2022-10-10T02:08:55.409Z,100918.50
2022-10-10T02:11:02.594Z,100913.22
2022-10-10T02:13:07.382Z,100926.41
2022-10-10T02:15:15.635Z,100932.53
2022-10-10T02:17:21.499Z,100927.31
2022-10-10T02:19:26.695Z,100937.03
2022-10-10T02:21:30.977Z,100937.88
2022-10-10T02:23:35.859Z,100944.88
2022-10-10T02:25:41.304Z,100946.59
2022-10-10T02:27:48.144Z,100950.94
2022-10-10T02:29:54.902Z,100950.94
2022-10-10T02:32:04.591Z,100952.72
2022-10-10T02:34:13.404Z,100957.16
2022-10-10T02:36:19.047Z,100956.28
2022-10-10T02:38:22.901Z,100962.44
2022-10-10T02:40:29.699Z,100961.50
2022-10-10T02:42:33.399Z,100969.41
2022-10-10T02:44:38.373Z,100967.72
2022-10-10T02:46:42.255Z,100972.06
2022-10-10T02:48:46.046Z,100979.03
2022-10-10T02:50:50.811Z,100975.44
2022-10-10T02:52:54.140Z,100971.97
2022-10-10T02:54:57.585Z,100971.09
2022-10-10T02:57:00.800Z,100967.53
2022-10-10T02:59:04.040Z,100967.53
2022-10-10T03:01:07.650Z,100973.53
2022-10-10T03:03:10.884Z,100986.72
2022-10-10T03:05:14.362Z,100978.81
2022-10-10T03:07:18.996Z,100988.47
2022-10-10T03:09:22.271Z,100989.34
2022-10-10T03:11:25.476Z,100998.13
2022-10-10T03:13:28.906Z,101002.47
2022-10-10T03:15:32.114Z,101007.75
2022-10-10T03:17:35.307Z,101000.75
2022-10-10T03:19:38.693Z,101001.59
2022-10-10T03:21:41.875Z,101005.13
2022-10-10T03:23:46.597Z,101011.31
2022-10-10T03:25:50.297Z,101021.03
2022-10-10T03:27:53.617Z,101011.22
2022-10-10T03:29:56.757Z,101012.88
2022-10-10T03:32:00.074Z,101021.56
2022-10-10T03:34:03.370Z,101025.06
2022-10-10T03:36:07.041Z,101027.63
2022-10-10T03:38:11.709Z,101026.69
2022-10-10T03:40:16.489Z,101032.81
2022-10-10T03:42:19.784Z,101028.41
2022-10-10T03:44:23.129Z,101027.63
2022-10-10T03:46:26.609Z,101032.91
2022-10-10T03:48:29.845Z,101029.34
2022-10-10T03:50:33.207Z,101036.41
2022-10-10T03:52:36.596Z,101039.97
2022-10-10T03:54:39.800Z,101038.25
2022-10-10T03:56:44.605Z,101036.53
2022-10-10T03:58:47.898Z,101054.19
2022-10-10T04:00:56.042Z,101057.75
2022-10-10T04:02:59.437Z,101056.91
2022-10-10T04:05:02.629Z,101056.97
2022-10-10T04:07:05.954Z,101062.25
2022-10-10T04:09:09.265Z,101077.22
2022-10-10T04:11:12.580Z,101077.22
2022-10-10T04:13:17.318Z,101072.03
2022-10-10T04:15:20.657Z,101083.50
2022-10-10T04:17:23.892Z,101076.53
2022-10-10T04:19:27.329Z,101080.94
2022-10-10T04:21:30.525Z,101088.09
2022-10-10T04:23:33.927Z,101092.50
2022-10-10T04:25:37.223Z,101102.22
2022-10-10T04:27:40.558Z,101097.94
2022-10-10T04:29:45.141Z,101105.84
2022-10-10T04:31:48.516Z,101110.22
2022-10-10T04:33:51.850Z,101111.13
2022-10-10T04:35:55.192Z,101115.50
2022-10-10T04:37:58.402Z,101121.63
2022-10-10T04:40:01.935Z,101115.50
2022-10-10T04:42:05.197Z,101134.88
2022-10-10T04:44:08.588Z,101126.03
2022-10-10T04:46:13.335Z,101134.81
2022-10-10T04:48:16.647Z,101140.88
2022-10-10T04:50:19.961Z,101137.28
2022-10-10T04:52:23.253Z,101139.94
2022-10-10T04:54:26.502Z,101146.25
2022-10-10T04:56:29.751Z,101144.53
2022-10-10T04:58:33.009Z,101149.97
2022-10-10T05:00:36.222Z,101150.88
2022-10-10T05:02:40.866Z,101158.78
2022-10-10T05:04:44.145Z,101165.00
2022-10-10T05:06:47.340Z,101164.16
2022-10-10T05:08:50.560Z,101173.00
2022-10-10T05:10:54.783Z,101174.81
2022-10-10T05:12:58.051Z,101186.41
2022-10-10T05:15:01.448Z,101182.91
2022-10-10T05:17:04.999Z,101180.25
2022-10-10T05:19:09.659Z,101185.47
2022-10-10T05:21:13.100Z,101187.25
2022-10-10T05:23:16.867Z,101194.25
2022-10-10T05:25:20.330Z,101190.75
2022-10-10T05:27:23.553Z,101202.16
2022-10-10T05:29:26.896Z,101200.38
2022-10-10T05:31:30.596Z,101192.53
2022-10-10T05:33:34.419Z,101203.00
2022-10-10T05:35:39.199Z,101214.50
2022-10-10T05:37:42.343Z,101217.19
2022-10-10T05:39:45.737Z,101222.41
2022-10-10T05:41:48.964Z,101227.59
2022-10-10T05:43:52.271Z,101229.41
2022-10-10T05:45:55.683Z,101237.31
2022-10-10T05:47:58.933Z,101238.25
2022-10-10T05:50:02.104Z,101238.31
2022-10-10T05:52:06.742Z,101240.03
2022-10-10T05:54:10.193Z,101245.38
2022-10-10T05:56:15.511Z,101248.94
2022-10-10T05:58:18.746Z,101248.09
2022-10-10T06:00:22.327Z,101255.22
2022-10-10T06:02:25.685Z,101256.22
2022-10-10T06:04:28.902Z,101252.81
2022-10-10T06:06:32.330Z,101248.44
2022-10-10T06:08:37.351Z,101258.16
2022-10-10T06:10:42.810Z,101267.06
2022-10-10T06:12:46.170Z,101267.97
2022-10-10T06:14:49.645Z,101267.19
2022-10-10T06:16:52.837Z,101266.25
2022-10-10T06:18:57.850Z,101268.91
2022-10-10T06:21:03.199Z,101267.97
2022-10-10T06:23:07.881Z,101270.63
2022-10-10T06:25:35.335Z,101278.53
2022-10-10T06:27:35.753Z,101275.03
2022-10-10T06:29:39.307Z,101278.59
2022-10-10T06:31:42.643Z,101290.00
2022-10-10T06:33:48.092Z,101288.34
2022-10-10T06:35:51.430Z,101295.41
2022-10-10T06:37:54.611Z,101292.84
2022-10-10T06:39:57.809Z,101314.81
2022-10-10T06:42:02.505Z,101324.59
2022-10-10T06:44:05.702Z,101322.88
2022-10-10T06:46:09.766Z,101328.13
2022-10-10T06:48:14.693Z,101330.69
2022-10-10T06:50:18.359Z,101334.19
2022-10-10T06:52:21.580Z,101342.97
2022-10-10T06:54:24.852Z,101342.09
2022-10-10T06:56:28.629Z,101342.09
2022-10-10T06:58:34.619Z,101346.53
2022-10-10T07:00:37.852Z,101351.72
2022-10-10T07:02:42.710Z,101356.94
2022-10-10T07:04:45.893Z,101359.50
2022-10-10T07:06:49.184Z,101368.22
2022-10-10T07:08:53.006Z,101374.28
2022-10-10T07:10:57.002Z,101376.91
2022-10-10T07:13:00.252Z,101388.19
2022-10-10T07:15:05.359Z,101387.22
2022-10-10T07:17:08.986Z,101386.16
2022-10-10T07:19:12.335Z,101393.09
2022-10-10T07:21:15.537Z,101391.38
2022-10-10T07:23:19.097Z,101387.72
2022-10-10T07:25:22.697Z,101400.00
2022-10-10T07:27:26.055Z,101402.50
2022-10-10T07:29:30.592Z,101409.44
2022-10-10T07:31:35.396Z,101407.56
2022-10-10T07:33:40.700Z,101410.94
2022-10-10T07:35:44.463Z,101419.66
2022-10-10T07:37:48.146Z,101416.94
2022-10-10T07:39:53.611Z,101435.22
2022-10-10T07:41:57.226Z,101432.50
2022-10-10T07:44:00.840Z,101435.88
2022-10-10T07:46:06.983Z,101436.66
2022-10-10T07:48:14.943Z,101443.50
2022-10-10T07:50:18.574Z,101436.38
2022-10-10T07:52:22.215Z,101449.53
2022-10-10T07:54:25.723Z,101450.25
2022-10-10T07:56:29.344Z,101451.94
2022-10-10T07:58:33.036Z,101448.22
2022-10-10T08:00:37.726Z,101460.53
2022-10-10T08:02:41.344Z,101463.00
2022-10-10T08:04:46.518Z,101463.88
2022-10-10T08:06:50.117Z,101469.09
2022-10-10T08:08:53.513Z,101475.16
2022-10-10T08:10:58.262Z,101478.53
2022-10-10T08:13:02.295Z,101481.09
2022-10-10T08:15:07.617Z,101482.66
2022-10-10T08:17:11.219Z,101490.41
2022-10-10T08:19:15.022Z,101497.97
2022-10-10T08:21:20.737Z,101505.59
2022-10-10T08:23:24.459Z,101514.88
2022-10-10T08:25:28.163Z,101515.31
2022-10-10T08:27:31.816Z,101519.31
2022-10-10T08:29:35.404Z,101517.09
2022-10-10T08:31:38.993Z,101517.59
2022-10-10T08:33:44.225Z,101526.00
2022-10-10T08:35:48.226Z,101524.84
2022-10-10T08:37:53.585Z,101525.56
2022-10-10T08:39:57.861Z,101530.63
2022-10-10T08:42:03.701Z,101532.91
2022-10-10T08:44:14.802Z,101548.03
2022-10-10T08:46:23.495Z,101544.78
2022-10-10T08:48:32.507Z,101548.63
2022-10-10T08:50:41.976Z,101560.47
2022-10-10T08:52:51.722Z,101564.53
2022-10-10T08:54:58.983Z,101560.53
2022-10-10T08:57:06.913Z,101567.72
2022-10-10T08:59:18.040Z,101566.22
2022-10-10T09:01:28.662Z,101570.78
2022-10-10T09:03:39.197Z,101572.16
2022-10-10T09:05:54.918Z,101581.31
2022-10-10T09:08:21.221Z,101567.56
2022-10-10T09:10:37.028Z,101573.00
2022-10-10T09:12:49.632Z,101584.81
2022-10-10T09:15:02.675Z,101580.97
2022-10-10T09:17:14.724Z,101583.38
2022-10-10T09:19:30.177Z,101599.72
2022-10-10T09:21:36.864Z,101603.00
2022-10-10T09:23:45.962Z,101604.09
2022-10-10T09:25:57.606Z,101611.72
2022-10-10T09:28:07.043Z,101620.38
2022-10-10T09:30:19.030Z,101627.38
2022-10-10T09:32:27.091Z,101626.13
2022-10-10T09:34:37.908Z,101624.91
2022-10-10T09:36:42.846Z,101631.75
2022-10-10T09:38:51.975Z,101630.75
2022-10-10T09:41:01.946Z,101628.50
2022-10-10T09:43:15.479Z,101639.97
2022-10-10T09:45:21.396Z,101638.25
2022-10-10T09:47:25.886Z,101637.22
2022-10-10T09:49:31.302Z,101641.19
2022-10-10T09:51:36.106Z,101645.97
2022-10-10T09:53:39.726Z,101635.00
2022-10-10T09:55:44.503Z,101644.22
2022-10-10T09:57:51.959Z,101649.09
2022-10-10T09:59:55.723Z,101649.38
2022-10-10T10:02:04.494Z,101651.50
2022-10-10T10:04:27.850Z,101654.66
2022-10-10T10:06:33.157Z,101652.84
2022-10-10T10:08:38.623Z,101655.50
2022-10-10T10:10:42.332Z,101667.31
2022-10-10T10:12:47.126Z,101665.06
2022-10-10T10:14:54.732Z,101665.25
2022-10-10T10:17:11.436Z,101667.91
2022-10-10T10:19:31.673Z,101660.50
2022-10-10T10:21:51.632Z,101667.25
2022-10-10T10:24:01.142Z,101671.63
2022-10-10T10:26:06.938Z,101673.22
2022-10-10T10:28:21.008Z,101685.41
2022-10-10T10:30:27.210Z,101683.72
2022-10-10T10:32:42.690Z,101683.53
2022-10-10T10:35:07.751Z,101694.75
2022-10-10T10:37:20.369Z,101694.81
2022-10-10T10:39:42.667Z,101698.34
2022-10-10T10:41:55.324Z,101701.94
2022-10-10T10:44:18.770Z,101700.13
2022-10-10T10:46:34.129Z,101706.91
2022-10-10T10:48:45.526Z,101707.47
2022-10-10T10:50:55.801Z,101702.84
2022-10-10T10:53:05.788Z,101711.59
2022-10-10T10:55:18.824Z,101705.41
2022-10-10T10:57:40.815Z,101705.97
2022-10-10T11:00:17.193Z,101713.56
2022-10-10T11:02:56.112Z,101710.56
2022-10-10T11:05:31.085Z,101712.38
2022-10-10T11:07:50.568Z,101711.34
2022-10-10T11:10:00.033Z,101719.22
2022-10-10T11:12:15.279Z,101724.66
2022-10-10T11:14:37.012Z,101733.66
2022-10-10T11:16:49.155Z,101726.81
2022-10-10T11:19:16.530Z,101724.59
2022-10-10T11:21:24.776Z,101730.03
2022-10-10T11:23:34.905Z,101739.78
2022-10-10T11:25:44.713Z,101735.25
2022-10-10T11:27:54.481Z,101736.97
2022-10-10T11:30:08.406Z,101745.13
2022-10-10T11:34:35.699Z,101761.66
2022-10-10T11:36:43.160Z,101759.09
2022-10-10T11:38:52.874Z,101761.94
2022-10-10T11:40:59.771Z,101771.06
2022-10-10T11:43:07.473Z,101766.38
2022-10-10T11:45:17.336Z,101763.31
2022-10-10T11:47:30.228Z,101767.34
2022-10-10T11:49:41.721Z,101773.72
2022-10-10T11:52:21.343Z,101779.44
2022-10-10T11:54:35.071Z,101773.16
2022-10-10T11:56:42.712Z,101783.66
2022-10-10T11:58:51.103Z,101786.81
2022-10-10T12:00:59.229Z,101795.44
2022-10-10T12:03:02.935Z,101788.34
2022-10-10T12:05:19.972Z,101796.38
2022-10-10T12:07:27.681Z,101800.53
2022-10-10T12:09:35.591Z,101813.25
2022-10-10T12:11:44.257Z,101810.06
2022-10-10T12:13:51.085Z,101811.19
2022-10-10T12:15:57.355Z,101812.81
2022-10-10T12:18:02.408Z,101812.22
2022-10-10T12:20:33.462Z,101810.44
2022-10-10T12:22:37.579Z,101817.53
2022-10-10T12:25:10.153Z,101809.16
2022-10-10T12:27:45.431Z,101808.91
2022-10-10T12:30:11.041Z,101813.63
2022-10-10T12:32:29.197Z,101815.34
2022-10-10T12:34:44.415Z,101817.06
2022-10-10T12:37:22.494Z,101810.53
2022-10-10T12:39:39.117Z,101821.50
2022-10-10T12:41:56.684Z,101821.66
2022-10-10T12:44:42.926Z,101823.69
2022-10-10T12:46:49.024Z,101822.41
2022-10-10T12:49:05.957Z,101823.06
2022-10-10T12:51:21.461Z,101828.31
2022-10-10T12:53:29.515Z,101824.06
2022-10-10T12:55:41.659Z,101822.97
2022-10-10T12:57:47.655Z,101822.97
2022-10-10T12:59:51.738Z,101826.25
2022-10-10T13:01:58.619Z,101824.53
2022-10-10T13:04:03.603Z,101829.84
2022-10-10T13:06:15.130Z,101840.47
2022-10-10T13:08:21.171Z,101836.22
2022-10-10T13:10:29.021Z,101838.00
2022-10-10T13:12:34.361Z,101837.81
2022-10-10T13:14:43.493Z,101843.94
2022-10-10T13:16:47.112Z,101836.88
2022-10-10T13:18:53.913Z,101845.16
2022-10-10T13:20:58.924Z,101841.03
2022-10-10T13:23:06.841Z,101842.22
2022-10-10T13:25:12.516Z,101840.69
2022-10-10T13:27:22.518Z,101844.47
2022-10-10T13:29:30.684Z,101830.41
2022-10-10T13:31:34.323Z,101834.69
2022-10-10T13:33:37.961Z,101839.84
2022-10-10T13:35:41.628Z,101843.09
2022-10-10T13:37:47.673Z,101838.38
2022-10-10T13:39:52.689Z,101842.47
2022-10-10T13:41:57.370Z,101842.56
2022-10-10T13:44:02.447Z,101850.66
2022-10-10T13:46:05.995Z,101853.38
2022-10-10T13:48:28.953Z,101858.53
2022-10-10T13:50:34.466Z,101857.56
2022-10-10T13:52:38.447Z,101865.22
2022-10-10T13:54:44.625Z,101871.88
2022-10-10T13:56:48.651Z,101875.97
2022-10-10T13:58:55.344Z,101871.34
2022-10-10T14:01:04.756Z,101868.50
2022-10-10T14:03:17.172Z,101869.44
2022-10-10T14:05:28.346Z,101874.19
2022-10-10T14:07:32.948Z,101875.66
2022-10-10T14:09:40.335Z,101873.72
2022-10-10T14:11:44.726Z,101882.19
2022-10-10T14:13:52.050Z,101878.38
2022-10-10T14:15:56.420Z,101885.81
2022-10-10T14:18:01.561Z,101878.97
2022-10-10T14:20:13.520Z,101884.38
2022-10-10T14:22:17.633Z,101874.66
2022-10-10T14:24:21.537Z,101885.13
2022-10-10T14:26:25.233Z,101887.63
2022-10-10T14:28:32.196Z,101889.25
2022-10-10T14:30:38.130Z,101892.69
2022-10-10T14:32:43.188Z,101888.22
2022-10-10T14:34:49.543Z,101894.41
2022-10-10T14:36:53.216Z,101893.53
2022-10-10T14:38:57.281Z,101901.50
2022-10-10T14:41:02.041Z,101892.69
2022-10-10T14:43:06.408Z,101900.66
2022-10-10T14:45:15.359Z,101905.13
2022-10-10T14:47:21.328Z,101899.03
2022-10-10T14:49:24.903Z,101900.84
2022-10-10T14:51:34.727Z,101911.38
2022-10-10T14:53:39.452Z,101915.81
2022-10-10T14:55:44.365Z,101915.06
2022-10-10T14:57:48.124Z,101920.47
2022-10-10T14:59:52.300Z,101918.75
2022-10-10T15:01:55.978Z,101923.31
2022-10-10T15:03:59.675Z,101929.75
2022-10-10T15:06:03.468Z,101926.28
2022-10-10T15:08:09.804Z,101924.47
2022-10-10T15:12:41.963Z,101933.34
2022-10-10T15:14:45.713Z,101929.81
2022-10-10T15:16:51.464Z,101935.06
2022-10-10T15:18:55.495Z,101923.47
2022-10-10T15:21:00.199Z,101922.53
2022-10-10T15:23:08.910Z,101929.66
2022-10-10T15:25:14.947Z,101937.53
2022-10-10T15:27:18.827Z,101924.25
2022-10-10T15:29:22.651Z,101938.47
2022-10-10T15:31:32.934Z,101941.94
2022-10-10T15:33:36.862Z,101941.94
2022-10-10T15:36:07.561Z,101942.84
2022-10-10T15:38:04.624Z,101944.63
2022-10-10T15:40:11.072Z,101949.13
2022-10-10T15:42:21.451Z,101940.28
2022-10-10T15:44:26.559Z,101943.97
2022-10-10T15:46:30.777Z,101949.38
2022-10-10T15:48:34.247Z,101954.84
2022-10-10T15:50:43.329Z,101958.50
2022-10-10T15:52:49.207Z,101962.97
2022-10-10T15:54:52.766Z,101966.66
2022-10-10T15:56:58.602Z,101971.13
2022-10-10T15:59:03.830Z,101969.31
2022-10-10T16:01:11.931Z,101961.50
2022-10-10T16:03:16.211Z,101966.03
2022-10-10T16:05:20.122Z,101966.22
2022-10-10T16:07:29.202Z,101976.00
2022-10-10T16:09:34.684Z,101976.09
2022-10-10T16:11:39.366Z,101975.44
2022-10-10T16:13:49.942Z,101975.59
2022-10-10T16:16:00.506Z,101977.47
2022-10-10T16:18:04.231Z,101974.03
2022-10-10T16:20:08.633Z,101971.44
2022-10-10T16:22:13.334Z,101977.72
2022-10-10T16:24:17.267Z,101972.47
2022-10-10T16:26:23.695Z,101969.88
2022-10-10T16:28:27.546Z,101970.94
2022-10-10T16:30:32.598Z,101976.25
2022-10-10T16:32:41.755Z,101974.44
2022-10-10T16:34:46.321Z,101976.16
2022-10-10T16:36:50.785Z,101982.31
2022-10-10T16:38:57.702Z,101981.38
2022-10-10T16:41:05.546Z,101979.56
2022-10-10T16:43:11.573Z,101984.81
2022-10-10T16:45:18.527Z,101986.69
2022-10-10T16:47:24.410Z,101984.97
2022-10-10T16:49:32.305Z,101994.84
2022-10-10T16:51:36.345Z,101987.00
2022-10-10T16:53:41.922Z,101988.91
2022-10-10T16:55:47.595Z,101996.22
2022-10-10T16:57:59.466Z,101987.63
2022-10-10T17:00:03.288Z,102002.81
2022-10-10T17:02:06.928Z,102003.91
2022-10-10T17:04:11.991Z,101997.03
2022-10-10T17:06:19.305Z,101996.31
2022-10-10T17:08:23.287Z,101998.25
2022-10-10T17:10:27.414Z,101995.75
2022-10-10T17:12:31.118Z,101999.44
2022-10-10T17:14:34.839Z,101997.00
2022-10-10T17:17:10.960Z,101996.28
2022-10-10T17:19:02.741Z,102008.06
2022-10-10T17:21:10.584Z,102007.44
2022-10-10T17:23:15.579Z,102010.25
2022-10-10T17:25:19.624Z,102006.88
2022-10-10T17:27:23.407Z,102010.56
2022-10-10T17:29:27.357Z,102018.53
2022-10-10T17:31:31.415Z,102015.06
2022-10-10T17:33:35.075Z,102015.22
2022-10-10T17:35:42.339Z,102016.16
2022-10-10T17:37:47.553Z,102022.41
2022-10-10T17:39:51.212Z,102018.97
2022-10-10T17:41:55.310Z,102024.44
2022-10-10T17:43:59.056Z,102021.06
2022-10-10T17:46:29.138Z,102029.25
2022-10-10T17:48:27.555Z,102025.94
2022-10-10T17:50:31.744Z,102033.25
2022-10-10T17:52:35.598Z,102030.75
2022-10-10T17:54:40.644Z,102027.44
2022-10-10T17:56:45.234Z,102033.03
2022-10-10T17:58:50.992Z,102033.31
2022-10-10T18:01:00.481Z,102033.59
2022-10-10T18:03:08.689Z,102042.69
2022-10-10T18:05:12.419Z,102038.47
2022-10-10T18:07:18.793Z,102037.75
2022-10-10T18:09:22.872Z,102045.06
2022-10-10T18:11:31.897Z,102048.75
2022-10-10T18:13:36.460Z,102052.59
2022-10-10T18:15:41.640Z,102053.63
2022-10-10T18:17:45.563Z,102056.44
2022-10-10T18:19:49.158Z,102060.13
2022-10-10T18:21:53.306Z,102062.13
2022-10-10T18:23:57.249Z,102064.13
2022-10-10T18:26:02.235Z,102070.50
2022-10-10T18:28:07.627Z,102075.97
2022-10-10T18:30:13.582Z,102067.34
2022-10-10T18:32:18.107Z,102075.50
2022-10-10T18:34:21.752Z,102074.75
2022-10-10T18:36:27.092Z,102074.97
2022-10-10T18:38:31.157Z,102078.59
2022-10-10T18:40:35.048Z,102079.59
2022-10-10T18:42:41.914Z,102083.28
2022-10-10T18:44:47.294Z,102086.06
2022-10-10T18:46:51.330Z,102085.28
2022-10-10T18:48:55.150Z,102083.56
2022-10-10T18:51:02.496Z,102084.47
2022-10-10T18:53:06.195Z,102083.69
2022-10-10T18:55:17.421Z,102078.44
2022-10-10T18:57:21.073Z,102080.22
2022-10-10T18:59:24.327Z,102103.13
2022-10-10T19:01:30.519Z,102085.53
2022-10-10T19:03:34.246Z,102091.66
2022-10-10T19:05:41.254Z,102101.41
2022-10-10T19:07:45.391Z,102107.63
2022-10-10T19:09:48.712Z,102110.34
2022-10-10T19:11:53.486Z,102102.38
2022-10-10T19:13:57.883Z,102115.69
2022-10-10T19:16:05.036Z,102116.59
2022-10-10T19:18:10.693Z,102121.13
2022-10-10T19:20:14.108Z,102120.22
2022-10-10T19:22:17.565Z,102126.47
2022-10-10T19:24:22.606Z,102125.59
2022-10-10T19:26:26.170Z,102123.00
2022-10-10T19:28:29.757Z,102124.88
2022-10-10T19:30:33.759Z,102121.34
2022-10-10T19:32:38.203Z,102135.47
2022-10-10T19:34:47.042Z,102128.38
2022-10-10T19:36:50.679Z,102141.59
2022-10-10T19:38:55.981Z,102149.53
2022-10-10T19:40:59.673Z,102144.38
2022-10-10T19:43:04.049Z,102142.66
2022-10-10T19:45:08.685Z,102142.72
2022-10-10T19:47:12.260Z,102148.06
2022-10-10T19:49:15.855Z,102159.63
2022-10-10T19:51:21.129Z,102153.59
2022-10-10T19:53:24.876Z,102161.66
2022-10-10T19:55:28.252Z,102164.44
2022-10-10T19:57:32.100Z,102160.97
2022-10-10T19:59:35.629Z,102156.72
2022-10-10T20:01:39.258Z,102159.47
2022-10-10T20:03:43.312Z,102168.31
2022-10-10T20:05:47.016Z,102153.50
2022-10-10T20:07:52.868Z,102160.66
2022-10-10T20:09:56.809Z,102159.03
2022-10-10T20:12:00.594Z,102158.22
2022-10-10T20:14:04.228Z,102159.13
2022-10-10T20:16:10.684Z,102163.56
2022-10-10T20:18:14.623Z,102164.47
2022-10-10T20:20:18.561Z,102166.25
2022-10-10T20:22:22.120Z,102162.81
2022-10-10T20:24:31.056Z,102162.84
2022-10-10T20:26:35.991Z,102163.78
2022-10-10T20:28:39.575Z,102166.47
2022-10-10T20:30:45.350Z,102169.25
2022-10-10T20:32:49.788Z,102173.72
2022-10-10T20:34:53.501Z,102173.72
2022-10-10T20:36:57.323Z,102176.34
2022-10-10T20:39:03.166Z,102166.59
2022-10-10T20:41:09.599Z,102162.97
2022-10-10T20:43:15.389Z,102169.03
2022-10-10T20:45:19.506Z,102177.75
2022-10-10T20:47:24.359Z,102173.38
2022-10-10T20:49:29.372Z,102174.25
2022-10-10T20:51:34.903Z,102175.94
2022-10-10T20:53:42.500Z,102175.81
2022-10-10T20:55:46.670Z,102180.97
2022-10-10T20:57:52.199Z,102187.09
2022-10-10T20:59:55.965Z,102183.44
2022-10-10T21:02:00.208Z,102191.34
2022-10-10T21:04:05.101Z,102186.06
2022-10-10T21:06:13.366Z,102195.81
2022-10-10T21:08:17.091Z,102195.94
2022-10-10T21:10:20.849Z,102195.13
2022-10-10T21:12:24.747Z,102193.34
2022-10-10T21:14:30.321Z,102196.00
2022-10-10T21:16:36.710Z,102199.56
2022-10-10T21:18:41.951Z,102197.88
2022-10-10T21:20:45.733Z,102198.78
2022-10-10T21:22:50.029Z,102194.44
2022-10-10T21:24:54.152Z,102198.00
2022-10-10T21:26:58.099Z,102191.91
2022-10-10T21:29:02.081Z,102193.75
2022-10-10T21:31:07.967Z,102198.16
2022-10-10T21:33:11.737Z,102197.38
2022-10-10T21:35:15.808Z,102193.91
2022-10-10T21:37:19.664Z,102193.97
2022-10-10T21:39:23.576Z,102199.31
2022-10-10T21:41:29.197Z,102192.34
2022-10-10T21:43:33.303Z,102210.84
2022-10-10T21:45:37.988Z,102203.81
2022-10-10T21:47:44.733Z,102205.63
2022-10-10T21:49:48.495Z,102201.19
2022-10-10T21:51:52.282Z,102208.22
2022-10-10T21:53:57.799Z,102208.22
2022-10-10T21:56:05.987Z,102207.31
2022-10-10T21:58:10.309Z,102210.72
2022-10-10T22:00:15.082Z,102208.91
2022-10-10T22:02:18.736Z,102206.97
2022-10-10T22:04:28.074Z,102218.25
2022-10-10T22:06:33.210Z,102214.59
2022-10-10T22:08:37.508Z,102218.00
2022-10-10T22:10:42.575Z,102221.47
2022-10-10T22:12:49.334Z,102216.97
2022-10-10T22:14:53.086Z,102219.50
2022-10-10T22:16:56.890Z,102213.25
2022-10-10T22:19:01.087Z,102217.56
2022-10-10T22:21:07.921Z,102214.84
2022-10-10T22:23:11.382Z,102218.31
2022-10-10T22:25:18.061Z,102219.16
2022-10-10T22:27:21.944Z,102223.50
2022-10-10T22:29:25.900Z,102226.97
2022-10-10T22:31:30.222Z,102230.38
2022-10-10T22:33:33.881Z,102225.09
2022-10-10T22:35:38.588Z,102229.53
2022-10-10T22:37:43.780Z,102224.25
2022-10-10T22:39:47.646Z,102222.50
2022-10-10T22:41:51.321Z,102226.97
2022-10-10T22:43:54.972Z,102221.59
2022-10-10T22:45:58.755Z,102228.66
2022-10-10T22:48:02.836Z,102229.53
2022-10-10T22:50:07.463Z,102228.59
2022-10-10T22:52:11.602Z,102229.41
2022-10-10T22:54:16.712Z,102233.78
2022-10-10T22:56:22.070Z,102230.28
2022-10-10T22:58:25.788Z,102231.09
2022-10-10T23:00:29.730Z,102224.88
2022-10-10T23:02:33.574Z,102226.59
2022-10-10T23:04:37.274Z,102230.06
2022-10-10T23:06:41.779Z,102229.06
2022-10-10T23:08:47.238Z,102230.69
2022-10-10T23:10:52.429Z,102235.03
2022-10-10T23:12:56.085Z,102233.22
2022-10-10T23:14:59.362Z,102226.13
2022-10-10T23:17:02.814Z,102234.00
2022-10-10T23:19:06.266Z,102228.75
2022-10-10T23:21:09.702Z,102224.41
2022-10-10T23:23:13.083Z,102226.25
2022-10-10T23:25:16.972Z,102223.66
2022-10-10T23:27:22.044Z,102222.81
2022-10-10T23:29:25.894Z,102214.13
2022-10-10T23:31:29.521Z,102218.56
2022-10-10T23:33:36.726Z,102210.66
2022-10-10T23:35:41.364Z,102215.91
2022-10-10T23:37:45.005Z,102215.91
2022-10-10T23:39:48.673Z,102223.78
2022-10-10T23:41:52.423Z,102223.84
2022-10-10T23:43:57.551Z,102220.31
2022-10-10T23:46:01.364Z,102219.47
2022-10-10T23:48:05.559Z,102216.75
2022-10-10T23:50:10.130Z,102222.91
2022-10-10T23:52:13.868Z,102216.75
2022-10-10T23:54:17.443Z,102214.97
2022-10-10T23:56:21.042Z,102217.53
2022-10-10T23:58:24.626Z,102217.50
